Time;durP1;ratioP1;P1;durP2;ratioP2;P2;SDS_P1;SDS_P2;PMS_P1;PMS_P2;Temp;Humidity;BMP_temperature;BMP_pressure;BME280_temperature;BME280_humidity;BME280_pressure;Samples;Min_cycle;Max_cycle;Signal;HPM_P1;HPM_P2
2022/11/08 00:02:07;;;;;;;9.77;8.77;;;;;;;3.94;100.00;95812.84;4998006;28;20523;-51
2022/11/08 00:04:33;;;;;;;14.82;9.32;;;;;;;3.92;100.00;95804.28;5051121;28;20124;-58
2022/11/08 00:15:10;;;;;;;13.02;8.10;;;;;;;3.92;100.00;95811.25;5067956;28;20679;-66
2022/11/08 00:17:36;;;;;;;8.55;7.47;;;;;;;3.87;100.00;95811.56;5067134;28;20115;-66
2022/11/08 00:20:02;;;;;;;8.65;7.00;;;;;;;3.86;100.00;95805.50;5067233;28;20065;-66
2022/11/08 00:22:30;;;;;;;7.88;6.93;;;;;;;3.89;100.00;95806.25;5070395;28;20036;-66
2022/11/08 00:24:56;;;;;;;7.07;6.38;;;;;;;4.00;100.00;95806.41;5071760;28;20028;-66
2022/11/08 00:27:23;;;;;;;10.98;7.95;;;;;;;3.98;100.00;95803.88;5068514;28;20044;-59
2022/11/08 00:29:49;;;;;;;12.48;8.35;;;;;;;4.04;100.00;95814.84;5069332;28;20456;-59
2022/11/08 00:32:16;;;;;;;12.30;7.22;;;;;;;4.14;100.00;95806.34;5067960;28;20028;-59
2022/11/08 00:34:42;;;;;;;9.20;7.10;;;;;;;4.07;100.00;95793.78;5072844;28;20638;-59
2022/11/08 00:37:08;;;;;;;8.10;6.15;;;;;;;4.04;100.00;95802.66;5068217;28;20035;-59
2022/11/08 00:39:34;;;;;;;6.28;5.68;;;;;;;4.05;100.00;95798.28;5071138;28;20028;-59
2022/11/08 00:41:59;;;;;;;5.90;5.30;;;;;;;4.11;100.00;95790.09;5064609;28;20028;-59
2022/11/08 00:44:25;;;;;;;7.18;5.07;;;;;;;4.14;100.00;95795.09;5067615;28;20055;-53
2022/11/08 00:46:50;;;;;;;7.80;6.60;;;;;;;4.16;100.00;95785.41;5066473;28;20099;-51
2022/11/08 00:49:16;;;;;;;9.50;6.38;;;;;;;4.16;100.00;95794.03;5072178;28;20075;-48
2022/11/08 00:51:41;;;;;;;8.25;5.85;;;;;;;4.19;100.00;95789.56;5074095;28;20866;-52
2022/11/08 00:54:08;;;;;;;9.07;6.22;;;;;;;4.21;100.00;95782.50;5067718;28;20457;-49
2022/11/08 00:56:34;;;;;;;6.45;5.50;;;;;;;4.22;100.00;95784.16;5072294;28;20059;-51
2022/11/08 00:59:00;;;;;;;7.88;6.07;;;;;;;4.25;100.00;95784.78;5069574;28;20422;-50
2022/11/08 01:01:25;;;;;;;11.48;7.63;;;;;;;4.25;100.00;95779.56;5073426;28;20110;-58
2022/11/08 01:03:52;;;;;;;7.65;6.20;;;;;;;4.25;100.00;95789.19;5071378;28;20056;-58
2022/11/08 01:06:22;;;;;;;7.97;4.97;;;;;;;4.29;100.00;95781.03;5072441;28;20027;-64
2022/11/08 01:08:48;;;;;;;8.57;5.97;;;;;;;4.34;100.00;95788.56;5073656;28;20101;-65
2022/11/08 01:11:17;;;;;;;8.32;5.63;;;;;;;4.35;100.00;95781.59;5070386;28;20497;-65
2022/11/08 01:13:43;;;;;;;5.60;5.10;;;;;;;4.33;100.00;95791.28;5072709;28;20565;-64
2022/11/08 01:16:16;;;;;;;5.82;4.93;;;;;;;4.32;100.00;95785.22;5066370;28;20036;-64
2022/11/08 01:18:42;;;;;;;5.63;4.90;;;;;;;4.34;100.00;95799.00;5075836;28;20397;-64
2022/11/08 01:21:09;;;;;;;5.22;4.78;;;;;;;4.36;100.00;95780.66;5070863;28;20036;-58
2022/11/08 01:23:34;;;;;;;8.32;4.93;;;;;;;4.35;100.00;95786.81;5074165;28;20596;-59
2022/11/08 01:26:04;;;;;;;5.53;3.97;;;;;;;4.33;100.00;95770.44;5067249;28;20051;-59
2022/11/08 01:28:34;;;;;;;6.57;5.15;;;;;;;4.28;100.00;95766.34;5072344;28;20037;-59
2022/11/08 01:31:12;;;;;;;6.78;4.90;;;;;;;4.27;100.00;95754.25;5073444;28;20027;-59
2022/11/08 01:33:37;;;;;;;4.72;4.30;;;;;;;4.27;100.00;95756.84;5074262;28;20505;-59
2022/11/08 01:36:08;;;;;;;6.68;4.43;;;;;;;4.29;100.00;95757.56;5070872;28;20048;-59
2022/11/08 01:38:35;;;;;;;10.88;5.03;;;;;;;4.36;100.00;95755.41;5074962;28;20033;-59
2022/11/08 01:41:00;;;;;;;5.90;5.10;;;;;;;4.35;100.00;95758.13;5074457;28;20528;-52
2022/11/08 01:43:29;;;;;;;9.07;4.32;;;;;;;4.29;100.00;95757.56;5043601;28;20028;-58
2022/11/08 01:46:18;;;;;;;5.45;3.88;;;;;;;4.29;100.00;95759.38;5069462;28;20069;-58
2022/11/08 01:48:50;;;;;;;4.10;3.70;;;;;;;4.32;100.00;95761.75;5072019;28;20124;-58
2022/11/08 01:51:19;;;;;;;5.53;4.93;;;;;;;4.35;100.00;95768.56;5070663;28;20033;-58
2022/11/08 01:53:46;;;;;;;5.13;4.32;;;;;;;4.32;100.00;95773.97;5061520;28;20071;-58
2022/11/08 01:56:14;;;;;;;4.60;4.13;;;;;;;4.26;100.00;95773.41;5054268;28;20028;-58
2022/11/08 01:58:42;;;;;;;4.78;4.00;;;;;;;4.28;100.00;95763.72;5062540;28;20024;-66
2022/11/08 02:01:09;;;;;;;4.03;3.72;;;;;;;4.27;100.00;95761.25;5066877;28;20063;-50
2022/11/08 02:03:34;;;;;;;4.03;3.72;;;;;;;4.26;100.00;95762.19;5049920;28;20538;-65
2022/11/08 02:06:02;;;;;;;4.38;4.07;;;;;;;4.21;100.00;95754.66;5052680;28;20038;-65
2022/11/08 02:08:36;;;;;;;3.95;3.65;;;;;;;4.19;100.00;95759.13;5063959;28;20036;-65
2022/11/08 02:11:04;;;;;;;4.22;3.88;;;;;;;4.13;100.00;95762.97;5064608;28;20028;-64
2022/11/08 02:13:31;;;;;;;6.65;3.85;;;;;;;4.09;100.00;95769.31;5056458;28;20030;-65
2022/11/08 02:15:57;;;;;;;5.40;3.63;;;;;;;4.11;100.00;95764.03;5061737;28;20039;-65
2022/11/08 02:18:25;;;;;;;7.15;5.28;;;;;;;4.11;100.00;95751.00;5050977;28;20035;-66
2022/11/08 02:21:27;;;;;;;4.40;3.83;;;;;;;4.05;100.00;95746.16;5065646;28;20509;-57
2022/11/08 02:23:54;;;;;;;5.43;4.00;;;;;;;4.04;100.00;95744.50;5068082;28;20025;-59
2022/11/08 02:26:39;;;;;;;4.72;3.53;;;;;;;3.96;100.00;95742.38;5057779;28;20070;-59
2022/11/08 02:29:22;;;;;;;3.53;3.22;;;;;;;3.96;100.00;95758.88;5051282;28;20062;-59
2022/11/08 02:31:47;;;;;;;2.80;2.60;;;;;;;4.11;100.00;95743.19;5061658;28;20037;-59
2022/11/08 02:34:13;;;;;;;2.95;2.75;;;;;;;4.21;100.00;95754.66;5054842;28;20564;-59
2022/11/08 02:36:39;;;;;;;3.55;2.65;;;;;;;4.18;100.00;95736.63;5061638;28;20044;-60
2022/11/08 02:39:04;;;;;;;3.00;2.80;;;;;;;4.33;100.00;95746.97;5058393;28;20036;-66
2022/11/08 02:41:30;;;;;;;2.95;2.75;;;;;;;4.19;100.00;95738.28;5052105;28;20053;-58
2022/11/08 02:43:56;;;;;;;4.25;3.08;;;;;;;4.14;100.00;95748.19;5030006;28;20070;-58
2022/11/08 02:46:22;;;;;;;3.45;2.88;;;;;;;4.12;100.00;95744.84;5068434;28;20490;-58
2022/11/08 02:48:47;;;;;;;3.53;3.17;;;;;;;4.09;100.00;95737.22;5062249;28;20045;-58
2022/11/08 02:51:12;;;;;;;3.50;3.20;;;;;;;4.00;100.00;95726.47;5055519;28;20047;-58
2022/11/08 02:53:38;;;;;;;4.03;2.95;;;;;;;4.08;100.00;95730.31;5057379;28;20035;-58
2022/11/08 02:56:03;;;;;;;3.00;2.80;;;;;;;4.01;100.00;95725.53;5054480;28;20494;-58
2022/11/08 02:58:29;;;;;;;4.25;3.30;;;;;;;3.94;100.00;95721.66;5043762;28;20071;-64
2022/11/08 03:00:54;;;;;;;3.20;3.00;;;;;;;3.91;100.00;95728.84;5065579;28;20375;-58
2022/11/08 03:03:20;;;;;;;7.80;5.78;;;;;;;3.83;100.00;95726.72;5038334;28;20103;-58
2022/11/08 03:05:46;;;;;;;6.53;3.30;;;;;;;3.81;100.00;95728.59;5062079;28;20115;-58
2022/11/08 03:08:12;;;;;;;3.03;2.83;;;;;;;3.77;100.00;95724.53;5052947;28;20046;-57
2022/11/08 03:10:37;;;;;;;2.63;2.42;;;;;;;3.78;100.00;95723.59;5041790;28;20405;-58
2022/11/08 03:13:04;;;;;;;3.35;2.65;;;;;;;3.73;100.00;95716.06;5045424;28;20556;-58
2022/11/08 03:15:30;;;;;;;2.80;2.60;;;;;;;3.83;100.00;95711.09;5056747;28;20038;-58
2022/11/08 03:17:57;;;;;;;2.85;2.65;;;;;;;3.74;100.00;95717.72;5048752;28;20057;-59
2022/11/08 03:20:23;;;;;;;4.63;2.78;;;;;;;3.69;100.00;95718.06;5032620;28;20522;-59
2022/11/08 03:22:55;;;;;;;3.33;2.53;;;;;;;3.67;100.00;95711.25;5051549;28;20133;-59
2022/11/08 03:25:20;;;;;;;2.83;2.60;;;;;;;3.66;100.00;95722.59;5058016;28;20028;-59
2022/11/08 03:27:46;;;;;;;6.32;2.55;;;;;;;3.66;100.00;95713.03;5040365;28;20033;-59
2022/11/08 03:30:11;;;;;;;3.72;2.53;;;;;;;3.64;100.00;95722.69;5045430;28;20024;-59
2022/11/08 03:32:36;;;;;;;2.85;2.65;;;;;;;3.62;100.00;95719.34;5058469;28;20035;-61
2022/11/08 03:35:02;;;;;;;2.75;2.42;;;;;;;3.61;100.00;95715.09;5058195;28;20525;-48
2022/11/08 03:37:27;;;;;;;2.80;2.53;;;;;;;3.58;100.00;95723.94;5064443;28;20617;-49
2022/11/08 03:39:53;;;;;;;3.65;2.60;;;;;;;3.70;100.00;95713.66;5067562;28;20086;-58
2022/11/08 03:42:18;;;;;;;3.78;2.70;;;;;;;3.79;100.00;95730.47;5063575;28;20488;-58
2022/11/08 03:44:43;;;;;;;5.30;2.65;;;;;;;3.80;100.00;95726.94;5066967;28;20042;-58
2022/11/08 03:47:09;;;;;;;2.70;2.60;;;;;;;3.80;100.00;95726.94;5066818;28;20044;-57
2022/11/08 03:49:34;;;;;;;3.03;2.72;;;;;;;3.88;100.00;95732.50;5066789;28;20029;-58
2022/11/08 03:52:00;;;;;;;4.07;2.22;;;;;;;3.91;100.00;95716.66;5052577;28;20098;-58
2022/11/08 03:54:25;;;;;;;2.83;2.63;;;;;;;3.84;100.00;95728.38;5068147;28;20486;-66
2022/11/08 03:56:50;;;;;;;2.50;2.40;;;;;;;3.92;100.00;95720.94;5066889;28;20032;-52
2022/11/08 03:59:16;;;;;;;2.40;2.25;;;;;;;3.85;100.00;95724.84;5066699;28;20090;-59
2022/11/08 04:01:41;;;;;;;3.45;2.45;;;;;;;3.78;100.00;95723.59;5067029;28;20035;-59
2022/11/08 04:04:07;;;;;;;2.33;2.22;;;;;;;3.65;100.00;95716.59;5066827;28;20094;-59
2022/11/08 04:06:33;;;;;;;3.08;2.40;;;;;;;3.56;100.00;95720.59;5066541;28;20406;-59
2022/11/08 04:08:58;;;;;;;3.38;2.90;;;;;;;3.62;100.00;95714.16;5068099;28;20028;-59
2022/11/08 04:16:52;;;;;;;3.40;2.50;;;;;;;3.66;100.00;95715.66;5060220;28;20058;-59
2022/11/08 04:22:02;;;;;;;2.90;2.65;;;;;;;3.65;100.00;95720.94;5062594;28;20044;-58
2022/11/08 04:24:27;;;;;;;4.47;3.00;;;;;;;3.73;100.00;95732.53;5070972;28;20036;-59
2022/11/08 04:26:53;;;;;;;6.72;3.05;;;;;;;3.75;100.00;95729.00;5071654;28;20918;-58
2022/11/08 04:29:18;;;;;;;5.88;5.38;;;;;;;3.74;100.00;95722.94;5049094;28;20037;-58
2022/11/08 04:31:43;;;;;;;4.38;3.92;;;;;;;3.64;100.00;95722.69;5069540;28;20444;-58
2022/11/08 04:34:09;;;;;;;6.13;4.60;;;;;;;3.64;100.00;95733.09;5071573;28;20033;-59
2022/11/08 04:36:34;;;;;;;5.00;4.57;;;;;;;3.67;100.00;95738.16;5071293;28;20031;-60
2022/11/08 04:38:59;;;;;;;5.13;4.65;;;;;;;3.63;100.00;95739.25;5071624;28;20559;-58
2022/11/08 04:41:25;;;;;;;5.32;4.47;;;;;;;3.56;100.00;95745.78;5071201;28;20035;-58
2022/11/08 04:43:53;;;;;;;6.60;4.78;;;;;;;3.51;100.00;95746.06;5040263;28;20038;-58
2022/11/08 04:46:24;;;;;;;6.65;4.65;;;;;;;3.62;100.00;95740.19;5070665;28;20520;-59
2022/11/08 04:48:51;;;;;;;6.75;5.60;;;;;;;3.54;100.00;95750.25;5062365;28;20476;-58
2022/11/08 04:51:22;;;;;;;8.10;6.00;;;;;;;3.80;100.00;95732.13;5070687;28;20102;-58
2022/11/08 04:53:48;;;;;;;11.43;6.60;;;;;;;3.67;100.00;95753.78;5070692;28;20048;-59
2022/11/08 04:56:19;;;;;;;4.85;4.32;;;;;;;3.72;100.00;95743.88;5069967;28;20035;-60
2022/11/08 04:58:47;;;;;;;5.43;4.90;;;;;;;3.79;100.00;95740.88;5070047;28;20408;-60
2022/11/08 05:01:15;;;;;;;5.60;4.68;;;;;;;3.85;100.00;95745.69;5070705;28;20027;-60
2022/11/08 05:03:41;;;;;;;4.60;3.47;;;;;;;4.00;100.00;95757.72;5071333;28;20468;-59
2022/11/08 05:06:10;;;;;;;5.32;4.25;;;;;;;4.11;100.00;95738.78;5060381;28;20029;-59
2022/11/08 05:08:36;;;;;;;6.22;4.22;;;;;;;4.11;100.00;95740.56;5063929;28;20025;-60
2022/11/08 05:11:03;;;;;;;4.57;4.18;;;;;;;4.09;100.00;95747.63;5070840;28;20104;-60
2022/11/08 05:13:29;;;;;;;5.72;3.65;;;;;;;4.03;100.00;95737.63;5070673;28;20524;-59
2022/11/08 05:16:03;;;;;;;6.25;3.80;;;;;;;3.95;100.00;95727.69;5067476;28;20056;-59
2022/11/08 05:18:29;;;;;;;4.57;3.42;;;;;;;3.93;100.00;95739.97;5070742;28;20602;-59
2022/11/08 05:23:40;;;;;;;3.67;3.38;;;;;;;3.92;100.00;95740.91;5058924;28;20104;-60
2022/11/08 05:26:06;;;;;;;4.07;3.22;;;;;;;4.01;100.00;95720.31;5069678;28;20119;-59
2022/11/08 05:28:32;;;;;;;5.13;4.57;;;;;;;4.29;100.00;95741.13;5068190;28;20044;-59
2022/11/08 05:30:58;;;;;;;4.15;3.75;;;;;;;4.20;100.00;95737.34;5069944;28;20040;-60
2022/11/08 05:33:24;;;;;;;4.65;4.25;;;;;;;4.09;100.00;95738.06;5063330;28;20036;-66
2022/11/08 05:35:49;;;;;;;4.72;4.32;;;;;;;3.98;100.00;95743.16;5068137;28;20489;-60
2022/11/08 05:38:15;;;;;;;5.80;3.92;;;;;;;3.92;100.00;95728.75;5050202;28;20083;-59
2022/11/08 05:40:40;;;;;;;3.55;3.33;;;;;;;3.94;100.00;95728.63;5070022;28;20496;-59
2022/11/08 05:43:06;;;;;;;3.65;3.40;;;;;;;3.97;100.00;95739.69;5035316;28;20032;-59
2022/11/08 05:45:31;;;;;;;4.47;3.90;;;;;;;3.97;100.00;95734.47;5068960;28;20039;-59
2022/11/08 05:48:02;;;;;;;5.65;3.88;;;;;;;3.98;100.00;95745.75;5069942;28;20028;-60
2022/11/08 05:50:31;;;;;;;4.03;3.63;;;;;;;3.95;100.00;95746.78;5069773;28;20032;-50
2022/11/08 05:52:57;;;;;;;3.45;3.15;;;;;;;3.91;100.00;95750.53;5069623;28;20039;-50
2022/11/08 05:55:22;;;;;;;3.80;3.50;;;;;;;3.91;100.00;95744.47;5070031;28;20444;-59
2022/11/08 05:57:48;;;;;;;4.10;3.70;;;;;;;3.90;100.00;95746.25;5050791;28;20028;-58
2022/11/08 06:00:14;;;;;;;4.65;3.00;;;;;;;3.85;100.00;95732.66;5069633;28;20075;-58
2022/11/08 06:02:39;;;;;;;4.88;3.38;;;;;;;3.86;100.00;95744.75;5068770;28;20218;-58
2022/11/08 06:05:05;;;;;;;3.40;3.20;;;;;;;3.86;100.00;95742.16;5069182;28;20107;-58
2022/11/08 06:07:31;;;;;;;5.88;2.78;;;;;;;3.77;100.00;95755.78;5069138;28;20048;-58
2022/11/08 06:09:56;;;;;;;3.78;3.33;;;;;;;3.87;100.00;95759.47;5069074;28;20043;-66
2022/11/08 06:12:21;;;;;;;7.50;3.60;;;;;;;3.73;100.00;95758.56;5045593;28;20034;-60
2022/11/08 06:14:47;;;;;;;3.85;3.55;;;;;;;3.78;100.00;95745.28;5056879;28;20047;-66
2022/11/08 06:17:12;;;;;;;4.03;3.63;;;;;;;3.89;100.00;95754.16;5065691;28;20036;-66
2022/11/08 06:19:38;;;;;;;4.70;4.28;;;;;;;3.95;100.00;95757.19;5065095;28;20064;-64
2022/11/08 06:22:03;;;;;;;6.15;3.80;;;;;;;3.82;100.00;95762.38;5067875;28;20025;-65
2022/11/08 06:24:28;;;;;;;5.93;3.97;;;;;;;3.75;100.00;95774.09;5069358;28;20581;-66
2022/11/08 06:26:54;;;;;;;4.53;3.88;;;;;;;3.70;100.00;95776.16;5057460;28;20017;-65
2022/11/08 06:29:20;;;;;;;10.30;5.88;;;;;;;3.71;100.00;95781.28;5035512;28;20029;-60
2022/11/08 06:31:45;;;;;;;9.95;6.40;;;;;;;3.67;100.00;95786.78;5067624;28;20058;-57
2022/11/08 06:34:11;;;;;;;6.95;6.22;;;;;;;3.63;100.00;95787.91;5069264;28;20397;-60
2022/11/08 06:36:36;;;;;;;9.93;6.85;;;;;;;3.62;100.00;95776.63;5050034;28;21391;-59
2022/11/08 06:39:02;;;;;;;10.82;7.88;;;;;;;3.58;100.00;95789.03;5067486;28;20040;-60
2022/11/08 06:41:28;;;;;;;10.43;7.63;;;;;;;3.49;100.00;95788.78;5068131;28;20044;-61
2022/11/08 06:43:54;;;;;;;10.65;8.20;;;;;;;3.55;100.00;95780.56;5068944;28;20509;-60
2022/11/08 06:46:20;;;;;;;9.95;7.20;;;;;;;3.54;100.00;95797.13;5052441;28;20038;-61
2022/11/08 06:48:45;;;;;;;12.98;7.10;;;;;;;3.56;100.00;95787.44;5065606;28;20471;-66
2022/11/08 06:51:11;;;;;;;6.35;5.25;;;;;;;3.57;100.00;95791.72;5067779;28;20032;-66
2022/11/08 06:53:36;;;;;;;7.32;5.05;;;;;;;3.78;100.00;95801.72;5067168;28;20028;-59
2022/11/08 06:56:02;;;;;;;5.35;4.55;;;;;;;3.80;100.00;95798.09;5066731;28;20089;-59
2022/11/08 06:58:28;;;;;;;5.20;4.70;;;;;;;3.79;100.00;95803.38;5068841;28;20103;-58
2022/11/08 07:00:54;;;;;;;5.63;4.70;;;;;;;3.82;100.00;95805.78;5067510;28;20059;-59
2022/11/08 07:03:19;;;;;;;6.93;5.32;;;;;;;3.80;100.00;95805.91;5064622;28;20063;-59
2022/11/08 07:05:44;;;;;;;5.95;4.90;;;;;;;3.76;100.00;95803.59;5062505;28;20040;-58
2022/11/08 07:08:10;;;;;;;6.85;6.25;;;;;;;3.70;100.00;95810.84;5067715;28;20527;-59
2022/11/08 07:10:36;;;;;;;8.15;5.65;;;;;;;3.78;100.00;95818.19;5067467;28;20048;-58
2022/11/08 07:13:01;;;;;;;9.20;6.93;;;;;;;3.75;100.00;95822.75;5031120;28;20043;-62
2022/11/08 07:15:28;;;;;;;9.30;6.00;;;;;;;3.73;100.00;95826.28;5067588;28;20536;-62
2022/11/08 07:17:53;;;;;;;10.88;8.55;;;;;;;3.79;100.00;95829.44;5068970;28;20045;-62
2022/11/08 07:20:21;;;;;;;9.05;6.97;;;;;;;3.81;100.00;95833.63;5067375;28;20072;-61
2022/11/08 07:22:46;;;;;;;8.25;6.53;;;;;;;3.86;100.00;95826.34;5067347;28;20029;-62
2022/11/08 07:25:12;;;;;;;10.07;7.25;;;;;;;3.98;100.00;95824.72;5066590;28;20174;-62
2022/11/08 07:27:37;;;;;;;13.13;8.88;;;;;;;4.09;100.00;95825.78;5068105;28;20109;-47
2022/11/08 07:30:02;;;;;;;8.82;6.13;;;;;;;4.21;100.00;95826.81;5067262;28;20032;-59
2022/11/08 07:32:28;;;;;;;5.18;4.65;;;;;;;4.35;100.00;95831.94;5068713;28;20119;-51
2022/11/08 07:34:53;;;;;;;8.30;4.55;;;;;;;4.35;100.00;95824.13;5065838;28;20025;-53
2022/11/08 07:37:18;;;;;;;12.48;6.68;;;;;;;4.37;100.00;95826.63;5068097;28;20051;-50
2022/11/08 07:39:44;;;;;;;17.35;5.93;;;;;;;4.32;100.00;95826.94;5067632;28;20567;-53
2022/11/08 07:42:09;;;;;;;23.20;6.00;;;;;;;4.29;100.00;95838.38;5069351;28;20083;-51
2022/11/08 07:44:35;;;;;;;25.75;5.97;;;;;;;4.54;100.00;95838.56;5049540;28;20081;-53
2022/11/08 07:47:00;;;;;;;26.48;5.80;;;;;;;4.56;100.00;95855.78;5068585;28;20108;-59
2022/11/08 07:49:25;;;;;;;8.88;5.25;;;;;;;4.50;100.00;95850.94;5068129;28;20104;-64
2022/11/08 07:51:51;;;;;;;9.43;4.45;;;;;;;4.44;100.00;95848.75;5057100;28;20044;-64
2022/11/08 07:54:16;;;;;;;8.77;5.50;;;;;;;4.45;100.00;95853.03;5053946;28;20053;-64
2022/11/08 07:56:41;;;;;;;9.15;6.05;;;;;;;4.43;100.00;95840.09;5054466;28;20044;-64
2022/11/08 07:59:07;;;;;;;11.45;6.07;;;;;;;4.40;100.00;95842.06;5051861;28;20126;-63
2022/11/08 08:01:32;;;;;;;10.75;5.20;;;;;;;4.36;100.00;95838.00;5057819;28;20475;-64
2022/11/08 08:03:57;;;;;;;6.18;5.60;;;;;;;4.33;100.00;95839.03;5056617;28;20042;-64
2022/11/08 08:06:23;;;;;;;9.70;5.40;;;;;;;4.34;100.00;95835.47;5057909;28;20036;-57
2022/11/08 08:08:49;;;;;;;8.75;6.32;;;;;;;4.36;100.00;95827.56;5056125;28;20036;-49
2022/11/08 08:11:14;;;;;;;9.00;5.75;;;;;;;4.39;100.00;95835.19;5057335;28;20150;-50
2022/11/08 08:13:40;;;;;;;9.13;6.40;;;;;;;4.76;100.00;95850.19;5055369;28;20033;-50
2022/11/08 08:16:05;;;;;;;8.27;6.13;;;;;;;4.79;100.00;95840.38;5058162;28;20485;-52
2022/11/08 08:18:31;;;;;;;7.28;5.30;;;;;;;4.92;100.00;95852.59;5057515;28;20409;-52
2022/11/08 08:20:57;;;;;;;7.68;5.30;;;;;;;4.97;100.00;95846.13;5056462;28;20029;-54
2022/11/08 08:23:22;;;;;;;7.55;5.30;;;;;;;5.03;100.00;95842.28;5052529;28;20572;-53
2022/11/08 08:25:48;;;;;;;6.15;5.55;;;;;;;5.10;100.00;95859.19;5056779;28;20060;-60
2022/11/08 08:28:13;;;;;;;9.95;5.32;;;;;;;5.21;100.00;95868.88;5057035;28;20086;-61
2022/11/08 08:30:39;;;;;;;8.85;6.28;;;;;;;5.28;100.00;95861.47;5053614;28;20033;-61
2022/11/08 08:33:11;;;;;;;9.30;6.15;;;;;;;5.41;100.00;95862.28;5057131;28;20059;-60
2022/11/08 08:35:37;;;;;;;9.00;8.02;;;;;;;5.56;100.00;95864.78;5050485;28;20116;-60
2022/11/08 08:38:04;;;;;;;12.88;8.63;;;;;;;5.78;100.00;95865.91;5057338;28;20111;-61
2022/11/08 08:40:30;;;;;;;8.57;7.68;;;;;;;5.98;100.00;95854.88;5055838;28;20040;-61
2022/11/08 08:42:59;;;;;;;8.65;6.72;;;;;;;6.31;100.00;95865.66;5052566;28;20037;-59
2022/11/08 08:45:26;;;;;;;7.78;5.72;;;;;;;6.63;99.34;95854.63;5058899;28;20025;-49
2022/11/08 08:47:53;;;;;;;8.40;5.78;;;;;;;6.99;97.71;95867.72;5053447;28;20513;-60
2022/11/08 08:50:19;;;;;;;6.85;5.55;;;;;;;7.31;96.72;95869.66;5058718;28;20512;-61
2022/11/08 08:52:45;;;;;;;6.25;4.85;;;;;;;7.58;96.17;95866.69;5071251;28;20028;-61
2022/11/08 08:55:10;;;;;;;7.95;5.40;;;;;;;7.78;94.05;95863.47;5071503;28;20025;-60
2022/11/08 08:57:36;;;;;;;5.47;4.70;;;;;;;7.89;92.22;95863.47;5070246;28;20032;-61
2022/11/08 09:00:02;;;;;;;5.60;4.55;;;;;;;7.97;92.85;95866.31;5068970;28;20029;-61
2022/11/08 09:02:28;;;;;;;3.80;3.50;;;;;;;8.06;92.69;95863.91;5067089;28;20032;-69
2022/11/08 09:04:53;;;;;;;4.78;4.18;;;;;;;8.16;93.61;95870.91;5071546;28;20559;-66
2022/11/08 09:07:18;;;;;;;4.20;3.90;;;;;;;8.26;90.14;95871.00;5071195;28;20562;-68
2022/11/08 09:09:44;;;;;;;3.80;3.50;;;;;;;8.32;89.17;95872.31;5071094;28;20494;-67
2022/11/08 09:12:09;;;;;;;3.10;2.65;;;;;;;8.43;88.72;95872.31;5070630;28;20623;-68
2022/11/08 09:14:34;;;;;;;5.15;3.30;;;;;;;8.55;87.36;95877.53;5071544;28;20064;-67
2022/11/08 09:17:00;;;;;;;5.15;3.30;;;;;;;8.69;87.33;95876.41;5066671;28;20110;-67
2022/11/08 09:19:25;;;;;;;4.05;3.75;;;;;;;8.86;86.45;95875.84;5071658;28;20032;-67
2022/11/08 09:21:51;;;;;;;4.22;3.33;;;;;;;9.02;82.69;95872.78;5067151;28;20073;-56
2022/11/08 09:24:16;;;;;;;4.13;3.80;;;;;;;9.16;83.47;95874.25;5070707;28;20055;-59
2022/11/08 09:26:41;;;;;;;4.93;3.75;;;;;;;9.30;81.12;95859.13;5070063;28;20032;-59
2022/11/08 09:29:07;;;;;;;4.45;3.25;;;;;;;9.39;80.47;95862.78;5071875;28;20035;-59
2022/11/08 09:31:32;;;;;;;3.00;2.80;;;;;;;9.53;79.53;95856.34;5062392;28;20448;-59
2022/11/08 09:33:58;;;;;;;2.90;2.70;;;;;;;9.66;79.29;95854.31;5069746;28;20024;-59
2022/11/08 09:36:23;;;;;;;3.95;3.58;;;;;;;9.76;80.12;95854.38;5070357;28;20025;-59
2022/11/08 09:38:49;;;;;;;3.15;2.95;;;;;;;9.86;79.01;95854.41;5070182;28;20037;-59
2022/11/08 09:41:52;;;;;;;3.08;2.88;;;;;;;9.98;76.30;95853.31;5070409;28;20078;-60
2022/11/08 09:44:23;;;;;;;2.75;2.55;;;;;;;10.12;74.20;95849.47;5068982;28;20120;-61
2022/11/08 09:46:57;;;;;;;2.20;2.10;;;;;;;10.20;73.08;95851.44;5065642;28;20126;-67
2022/11/08 09:49:37;;;;;;;1.95;1.85;;;;;;;10.33;72.27;95845.91;5070571;28;20094;-66
2022/11/08 09:52:04;;;;;;;2.33;2.20;;;;;;;10.40;71.53;95848.81;5069690;28;20079;-66
2022/11/08 09:54:42;;;;;;;3.20;1.98;;;;;;;10.62;71.74;95845.16;5070030;28;20853;-67
2022/11/08 09:57:26;;;;;;;2.53;1.77;;;;;;;10.75;69.39;95839.59;5043058;28;20033;-64
2022/11/08 09:59:59;;;;;;;4.75;1.70;;;;;;;10.94;70.62;95845.78;5066222;28;20046;-64
2022/11/08 10:02:26;;;;;;;2.00;1.52;;;;;;;11.11;69.19;95844.28;5069838;28;20039;-59
2022/11/08 10:04:57;;;;;;;1.73;1.50;;;;;;;11.23;68.28;95840.47;5069947;28;20060;-59
2022/11/08 10:07:35;;;;;;;2.05;1.95;;;;;;;11.39;67.39;95834.63;5052350;28;20553;-58
2022/11/08 10:10:38;;;;;;;1.88;1.77;;;;;;;11.61;66.39;95832.63;5070266;28;20090;-58
2022/11/08 10:13:03;;;;;;;1.83;1.73;;;;;;;11.76;64.40;95827.69;5070470;28;20044;-58
2022/11/08 10:15:49;;;;;;;1.70;1.60;;;;;;;11.93;62.21;95831.34;5069713;28;20104;-58
2022/11/08 10:18:36;;;;;;;1.88;1.77;;;;;;;12.08;61.77;95830.91;5058695;28;20032;-59
2022/11/08 10:21:40;;;;;;;2.30;2.10;;;;;;;12.21;61.61;95820.78;5060666;28;20028;-66
2022/11/08 10:24:14;;;;;;;2.38;2.20;;;;;;;12.36;60.62;95817.66;5029593;28;20045;-65
2022/11/08 10:26:44;;;;;;;3.25;2.92;;;;;;;12.30;62.25;95821.72;5064305;28;20032;-65
2022/11/08 10:29:12;;;;;;;3.30;3.08;;;;;;;12.41;62.13;95818.03;5069700;28;20038;-65
2022/11/08 10:31:40;;;;;;;2.25;2.05;;;;;;;12.44;61.10;95807.16;5069221;28;20106;-64
2022/11/08 10:34:13;;;;;;;2.25;2.08;;;;;;;12.52;60.68;95804.63;5069833;28;20036;-64
2022/11/08 10:36:53;;;;;;;2.67;2.00;;;;;;;12.71;60.61;95800.13;5066892;28;20024;-65
2022/11/08 10:39:31;;;;;;;3.33;2.05;;;;;;;12.87;61.74;95807.38;5069644;28;20032;-59
2022/11/08 10:42:34;;;;;;;2.63;2.10;;;;;;;13.16;59.90;95798.31;5067246;28;20459;-66
2022/11/08 10:45:00;;;;;;;3.10;1.80;;;;;;;13.11;60.89;95798.78;5067943;28;20490;-65
2022/11/08 10:47:29;;;;;;;2.30;2.13;;;;;;;13.15;60.34;95800.16;5069399;28;20117;-65
2022/11/08 10:49:54;;;;;;;2.40;1.90;;;;;;;13.25;60.33;95797.38;5069257;28;20089;-65
2022/11/08 10:52:48;;;;;;;4.00;1.95;;;;;;;13.51;59.01;95779.88;5069556;28;20422;-65
2022/11/08 10:55:47;;;;;;;2.67;2.47;;;;;;;13.59;59.60;95775.44;5068311;28;20119;-65
2022/11/08 10:58:37;;;;;;;2.75;2.55;;;;;;;13.70;59.50;95784.91;5061045;28;20119;-53
2022/11/08 11:01:15;;;;;;;3.22;2.40;;;;;;;13.82;60.13;95772.22;5068225;28;20051;-61
2022/11/08 11:03:41;;;;;;;3.35;2.17;;;;;;;13.96;58.92;95762.84;5069669;28;20527;-65
2022/11/08 11:06:23;;;;;;;2.80;2.22;;;;;;;14.18;57.98;95760.56;5068106;28;20035;-64
2022/11/08 11:09:18;;;;;;;2.22;2.00;;;;;;;14.24;58.10;95764.38;5064730;28;20055;-66
2022/11/08 11:11:44;;;;;;;2.10;1.90;;;;;;;14.21;58.55;95754.94;5062873;28;20029;-64
2022/11/08 11:14:13;;;;;;;1.90;1.80;;;;;;;14.33;56.71;95747.50;5065801;28;20068;-65
2022/11/08 11:16:59;;;;;;;2.08;1.88;;;;;;;14.29;57.93;95747.03;5068938;28;20039;-66
2022/11/08 11:19:27;;;;;;;2.88;1.90;;;;;;;14.31;59.21;95750.34;5069395;28;20055;-53
2022/11/08 11:22:06;;;;;;;2.80;2.10;;;;;;;14.39;58.62;95751.31;5068502;28;20036;-62
2022/11/08 11:24:45;;;;;;;2.85;2.65;;;;;;;14.53;57.63;95747.19;5068660;28;20116;-62
2022/11/08 11:27:29;;;;;;;3.70;2.72;;;;;;;14.46;57.81;95739.91;5067793;28;20028;-62
2022/11/08 11:30:14;;;;;;;3.25;2.95;;;;;;;14.49;56.69;95736.13;5068437;28;20060;-62
2022/11/08 11:33:14;;;;;;;3.50;2.38;;;;;;;14.41;55.84;95742.25;5068423;28;20406;-61
2022/11/08 11:35:48;;;;;;;3.28;2.33;;;;;;;14.52;57.46;95737.59;5056733;28;20036;-62
2022/11/08 11:38:26;;;;;;;5.22;2.88;;;;;;;14.59;57.98;95734.13;5064391;28;20024;-67
2022/11/08 11:40:57;;;;;;;3.55;2.50;;;;;;;14.61;57.01;95729.47;5056254;28;20532;-58
2022/11/08 11:43:50;;;;;;;2.60;2.40;;;;;;;14.66;57.06;95730.78;5068608;28;20032;-58
2022/11/08 11:46:18;;;;;;;2.50;2.30;;;;;;;14.56;57.21;95726.50;5067923;28;20040;-58
2022/11/08 11:49:03;;;;;;;2.75;2.47;;;;;;;14.68;55.99;95721.69;5068571;28;20033;-59
2022/11/08 11:51:29;;;;;;;2.83;2.30;;;;;;;14.42;56.54;95703.31;5067289;28;20044;-58
2022/11/08 11:53:57;;;;;;;3.40;2.80;;;;;;;14.33;58.05;95716.56;5068785;28;20040;-58
2022/11/08 11:56:41;;;;;;;3.90;2.67;;;;;;;14.37;58.35;95710.94;5017445;28;20032;-60
2022/11/08 11:59:33;;;;;;;2.28;2.08;;;;;;;14.65;56.42;95707.94;5068301;28;20091;-61
2022/11/08 12:02:40;;;;;;;3.65;2.30;;;;;;;14.71;54.63;95704.69;5068578;28;20410;-58